Dubrovnik, Hrvatska

06:14 PM CEST on Rujan 22, 2014 (GMT +0200)
Cilipi | Change Station
CLOSE
Current Station
Zračna luka
Location: Dubrovnik,
Visina: 541 ft
Nearby Weather Stations

Elev 541 ft 42.56 °N, 18.27 °E | Updated 14 minutes ago

Scattered Clouds
Raštrkani oblaci
72 °F
Feels Like 72 °F
S
9
Vjetar Varijabla smjera vjetra Vjetar from JI

Danas
High -- | Low -- °F
--% Chance of Precip.
Jučer
High -- | Low -- °F
Precip. -- u
6:33 AM 6:44 PM
Mlađak, 2% visible
Pritisak 29.77 u
Vidljivost 4.3 milja
Oblaci Raštrkani oblaci 800 ft
Točka rose 70 °F
Vlažnost 94%
Kiša 0.00 u
Visina snijega Not available.
UV 0 od 12
Pollen Not available.
Kvalitet zraka Not available.
Flu Activity Not available.
METAR LDDU 221600Z 14008KT 7000 SCT008 22/21 Q1008 NOSIG

More Conditions Fewer Conditions

Pritisak 29.77 u
Vidljivost 4.3 milja
Oblaci Raštrkani oblaci 800 ft
Točka rose 70 °F
Vlažnost 94%
Kiša 0.00 u
Visina snijega Not available.
UV 0 od 12
Pollen Not available.
Kvalitet zraka Not available.
Flu Activity Not available.
METAR LDDU 221600Z 14008KT 7000 SCT008 22/21 Q1008 NOSIG

More Conditions Fewer Conditions

10-Day Weather Forecast

Almanac

Astronomija

Sep. 22, 2014 Izlazak Zalazak
Trenutno vrijeme 6:33 AM CEST 6:44 PM CEST
Civilni sumrak 6:05 AM CEST 7:12 PM CEST
Nautički sumrak 5:32 AM CEST 7:45 PM CEST
Astronomski sumrak 4:59 AM CEST 8:19 PM CEST
Moon 4:44 AM CEST 5:44 PM CEST
Duljina trajanja vidljive svjetlosti 13h 07m
Duljina dana
12h 10m
Tomorrow will be 2m 52s shorter.
Mlađak, 2% of the Moon is Illuminated
Danas
Mlađak
Sep 24
New
Oct 1
Prva četvrtina
Oct 8
Pun mjesec
Oct 15
Zadnja četvrt

Današnji ekstremi

Country Highs Country Lows

Community

WunderPhotos

Upload Photos

1,755,477 photos uploaded!

WunderBlogs® & News

Nearby

Kvalitet zraka

Not available.

Visina snijega

Not available.

Earthquake Activity

Grad Distance Mag. Time & Date
No recent earthquake activity has been reported nearby.
Minimum magnitude displayed is 2.5.

Coastal Water Temperatures

Mjesto Temperatura
No Stations Reporting

Nearby Weather Stations